sensor_id;sensor_type;location;lat;lon;timestamp;temperature;humidity
32839;DHT22;19182;41.820;12.808;2024-01-16T00:02:04;6.60;99.90
32839;DHT22;19182;41.820;12.808;2024-01-16T00:04:30;6.60;99.90
32839;DHT22;19182;41.820;12.808;2024-01-16T00:06:56;6.60;99.90
32839;DHT22;19182;41.820;12.808;2024-01-16T00:09:22;6.60;99.90
32839;DHT22;19182;41.820;12.808;2024-01-16T00:11:49;6.70;99.90
32839;DHT22;19182;41.820;12.808;2024-01-16T00:14:16;6.80;99.90
32839;DHT22;19182;41.820;12.808;2024-01-16T00:16:48;6.80;99.90
32839;DHT22;19182;41.820;12.808;2024-01-16T00:19:14;6.70;99.90
32839;DHT22;19182;41.820;12.808;2024-01-16T00:21:44;6.80;99.90
32839;DHT22;19182;41.820;12.808;2024-01-16T00:26:41;6.80;99.90
32839;DHT22;19182;41.820;12.808;2024-01-16T00:29:07;6.90;99.90
32839;DHT22;19182;41.820;12.808;2024-01-16T00:31:34;6.80;99.90
32839;DHT22;19182;41.820;12.808;2024-01-16T00:34:02;6.80;99.90
32839;DHT22;19182;41.820;12.808;2024-01-16T00:36:28;6.70;99.90
32839;DHT22;19182;41.820;12.808;2024-01-16T00:38:54;6.60;99.90
32839;DHT22;19182;41.820;12.808;2024-01-16T00:41:20;6.60;99.90
32839;DHT22;19182;41.820;12.808;2024-01-16T00:43:46;6.60;99.90
32839;DHT22;19182;41.820;12.808;2024-01-16T00:46:12;6.50;99.90
32839;DHT22;19182;41.820;12.808;2024-01-16T00:48:37;6.50;99.90
32839;DHT22;19182;41.820;12.808;2024-01-16T00:51:04;6.60;99.90
32839;DHT22;19182;41.820;12.808;2024-01-16T00:53:30;6.50;99.90
32839;DHT22;19182;41.820;12.808;2024-01-16T00:55:57;6.60;99.90
32839;DHT22;19182;41.820;12.808;2024-01-16T00:58:24;6.70;99.90
32839;DHT22;19182;41.820;12.808;2024-01-16T01:00:50;6.70;99.90
32839;DHT22;19182;41.820;12.808;2024-01-16T01:03:20;6.70;99.90
32839;DHT22;19182;41.820;12.808;2024-01-16T01:05:45;6.80;99.90
32839;DHT22;19182;41.820;12.808;2024-01-16T01:08:11;6.80;99.90
32839;DHT22;19182;41.820;12.808;2024-01-16T01:10:37;6.80;99.90
32839;DHT22;19182;41.820;12.808;2024-01-16T01:13:04;6.70;99.90
32839;DHT22;19182;41.820;12.808;2024-01-16T01:15:30;6.70;99.90
32839;DHT22;19182;41.820;12.808;2024-01-16T01:17:56;6.70;99.90
32839;DHT22;19182;41.820;12.808;2024-01-16T01:20:22;6.70;99.90
32839;DHT22;19182;41.820;12.808;2024-01-16T01:22:48;6.70;99.90
32839;DHT22;19182;41.820;12.808;2024-01-16T01:25:13;6.80;99.90
32839;DHT22;19182;41.820;12.808;2024-01-16T01:27:39;6.80;99.90
32839;DHT22;19182;41.820;12.808;2024-01-16T01:30:18;6.90;99.90
32839;DHT22;19182;41.820;12.808;2024-01-16T01:32:45;6.90;99.90
32839;DHT22;19182;41.820;12.808;2024-01-16T01:35:11;6.90;99.90
32839;DHT22;19182;41.820;12.808;2024-01-16T01:37:37;6.90;99.90
32839;DHT22;19182;41.820;12.808;2024-01-16T01:40:04;6.80;99.90
32839;DHT22;19182;41.820;12.808;2024-01-16T01:42:30;6.70;99.90
32839;DHT22;19182;41.820;12.808;2024-01-16T01:44:56;6.70;99.90
32839;DHT22;19182;41.820;12.808;2024-01-16T01:47:22;6.70;99.90
32839;DHT22;19182;41.820;12.808;2024-01-16T01:49:49;6.70;99.90
32839;DHT22;19182;41.820;12.808;2024-01-16T01:52:16;6.70;99.90
32839;DHT22;19182;41.820;12.808;2024-01-16T01:54:44;6.60;99.90
32839;DHT22;19182;41.820;12.808;2024-01-16T01:57:10;6.50;99.90
32839;DHT22;19182;41.820;12.808;2024-01-16T01:59:36;6.60;99.90
32839;DHT22;19182;41.820;12.808;2024-01-16T02:02:04;6.60;99.90
32839;DHT22;19182;41.820;12.808;2024-01-16T02:04:31;6.50;99.90
32839;DHT22;19182;41.820;12.808;2024-01-16T02:06:57;6.50;99.90
32839;DHT22;19182;41.820;12.808;2024-01-16T02:09:23;6.40;99.90
32839;DHT22;19182;41.820;12.808;2024-01-16T02:11:49;6.50;99.90
32839;DHT22;19182;41.820;12.808;2024-01-16T02:14:15;6.40;99.90
32839;DHT22;19182;41.820;12.808;2024-01-16T02:16:42;6.40;99.90
32839;DHT22;19182;41.820;12.808;2024-01-16T02:19:10;6.40;99.90
32839;DHT22;19182;41.820;12.808;2024-01-16T02:21:47;6.40;99.90
32839;DHT22;19182;41.820;12.808;2024-01-16T02:24:17;6.30;99.90
32839;DHT22;19182;41.820;12.808;2024-01-16T02:26:44;6.20;99.90
32839;DHT22;19182;41.820;12.808;2024-01-16T02:29:10;6.40;99.90
32839;DHT22;19182;41.820;12.808;2024-01-16T02:31:35;6.40;99.90
32839;DHT22;19182;41.820;12.808;2024-01-16T02:34:01;6.40;99.90
32839;DHT22;19182;41.820;12.808;2024-01-16T02:36:30;6.30;99.90
32839;DHT22;19182;41.820;12.808;2024-01-16T02:38:56;6.20;99.90
32839;DHT22;19182;41.820;12.808;2024-01-16T02:41:21;6.10;99.90
32839;DHT22;19182;41.820;12.808;2024-01-16T02:43:47;6.10;99.90
32839;DHT22;19182;41.820;12.808;2024-01-16T02:46:17;6.10;99.90
32839;DHT22;19182;41.820;12.808;2024-01-16T02:48:44;6.10;99.90
32839;DHT22;19182;41.820;12.808;2024-01-16T02:51:09;6.10;99.90
32839;DHT22;19182;41.820;12.808;2024-01-16T02:53:35;6.10;99.90
32839;DHT22;19182;41.820;12.808;2024-01-16T02:56:01;6.10;99.90
32839;DHT22;19182;41.820;12.808;2024-01-16T02:58:27;6.00;99.90
32839;DHT22;19182;41.820;12.808;2024-01-16T03:00:53;6.00;99.90
32839;DHT22;19182;41.820;12.808;2024-01-16T03:03:21;6.10;99.90
32839;DHT22;19182;41.820;12.808;2024-01-16T03:05:47;6.10;99.90
32839;DHT22;19182;41.820;12.808;2024-01-16T03:08:13;6.20;99.90
32839;DHT22;19182;41.820;12.808;2024-01-16T03:10:39;6.30;99.90
32839;DHT22;19182;41.820;12.808;2024-01-16T03:13:05;6.30;99.90
32839;DHT22;19182;41.820;12.808;2024-01-16T03:15:30;6.20;99.90
32839;DHT22;19182;41.820;12.808;2024-01-16T03:17:57;6.10;99.90
32839;DHT22;19182;41.820;12.808;2024-01-16T03:20:23;6.10;99.90
32839;DHT22;19182;41.820;12.808;2024-01-16T03:22:49;6.10;99.90
32839;DHT22;19182;41.820;12.808;2024-01-16T03:25:16;6.20;99.90
32839;DHT22;19182;41.820;12.808;2024-01-16T03:27:43;5.70;99.90
32839;DHT22;19182;41.820;12.808;2024-01-16T03:30:11;6.20;99.90
32839;DHT22;19182;41.820;12.808;2024-01-16T03:32:37;6.30;99.90
32839;DHT22;19182;41.820;12.808;2024-01-16T03:35:04;6.20;99.90
32839;DHT22;19182;41.820;12.808;2024-01-16T03:37:30;6.20;99.90
32839;DHT22;19182;41.820;12.808;2024-01-16T03:40:14;6.30;99.90
32839;DHT22;19182;41.820;12.808;2024-01-16T03:42:40;6.20;99.90
32839;DHT22;19182;41.820;12.808;2024-01-16T03:45:08;6.10;99.90
32839;DHT22;19182;41.820;12.808;2024-01-16T03:47:33;6.10;99.90
32839;DHT22;19182;41.820;12.808;2024-01-16T03:52:26;6.00;99.90
32839;DHT22;19182;41.820;12.808;2024-01-16T03:54:52;6.00;99.90
32839;DHT22;19182;41.820;12.808;2024-01-16T03:57:18;6.00;99.90
32839;DHT22;19182;41.820;12.808;2024-01-16T03:59:44;6.10;99.90
32839;DHT22;19182;41.820;12.808;2024-01-16T04:02:10;6.30;99.90
32839;DHT22;19182;41.820;12.808;2024-01-16T04:04:36;6.40;99.90
32839;DHT22;19182;41.820;12.808;2024-01-16T04:07:02;6.50;99.90
32839;DHT22;19182;41.820;12.808;2024-01-16T04:09:29;6.50;99.90
32839;DHT22;19182;41.820;12.808;2024-01-16T04:11:55;6.50;99.90
32839;DHT22;19182;41.820;12.808;2024-01-16T04:14:21;6.50;99.90
32839;DHT22;19182;41.820;12.808;2024-01-16T04:16:49;6.40;99.90
32839;DHT22;19182;41.820;12.808;2024-01-16T04:21:42;6.40;99.90
32839;DHT22;19182;41.820;12.808;2024-01-16T04:24:09;6.40;99.90
32839;DHT22;19182;41.820;12.808;2024-01-16T04:26:36;6.50;99.90
32839;DHT22;19182;41.820;12.808;2024-01-16T04:29:03;6.40;99.90
32839;DHT22;19182;41.820;12.808;2024-01-16T04:31:30;6.40;99.90
32839;DHT22;19182;41.820;12.808;2024-01-16T04:33:56;6.50;99.90
32839;DHT22;19182;41.820;12.808;2024-01-16T04:36:22;6.50;99.90
32839;DHT22;19182;41.820;12.808;2024-01-16T04:38:49;6.30;99.90
32839;DHT22;19182;41.820;12.808;2024-01-16T04:41:18;6.30;99.90
32839;DHT22;19182;41.820;12.808;2024-01-16T04:43:46;6.30;99.90
32839;DHT22;19182;41.820;12.808;2024-01-16T04:46:13;6.30;99.90
32839;DHT22;19182;41.820;12.808;2024-01-16T04:48:40;6.20;99.90
32839;DHT22;19182;41.820;12.808;2024-01-16T04:51:06;6.20;99.90
32839;DHT22;19182;41.820;12.808;2024-01-16T04:53:33;6.20;99.90
32839;DHT22;19182;41.820;12.808;2024-01-16T04:55:59;6.30;99.90
32839;DHT22;19182;41.820;12.808;2024-01-16T04:58:24;6.20;99.90
32839;DHT22;19182;41.820;12.808;2024-01-16T05:00:50;6.30;99.90
32839;DHT22;19182;41.820;12.808;2024-01-16T05:03:16;6.30;99.90
32839;DHT22;19182;41.820;12.808;2024-01-16T05:05:42;6.10;99.90
32839;DHT22;19182;41.820;12.808;2024-01-16T05:08:10;6.00;99.90
32839;DHT22;19182;41.820;12.808;2024-01-16T05:10:36;6.00;99.90
32839;DHT22;19182;41.820;12.808;2024-01-16T05:13:02;6.00;99.90
32839;DHT22;19182;41.820;12.808;2024-01-16T05:15:29;6.00;99.90
32839;DHT22;19182;41.820;12.808;2024-01-16T05:17:55;6.00;99.90
32839;DHT22;19182;41.820;12.808;2024-01-16T05:20:23;6.00;99.90
32839;DHT22;19182;41.820;12.808;2024-01-16T05:22:48;6.00;99.90
32839;DHT22;19182;41.820;12.808;2024-01-16T05:25:14;6.00;99.90
32839;DHT22;19182;41.820;12.808;2024-01-16T05:27:42;6.10;99.90
32839;DHT22;19182;41.820;12.808;2024-01-16T05:30:09;6.20;99.90
32839;DHT22;19182;41.820;12.808;2024-01-16T05:32:35;6.20;99.90
32839;DHT22;19182;41.820;12.808;2024-01-16T05:35:01;6.20;99.90
32839;DHT22;19182;41.820;12.808;2024-01-16T05:37:27;6.20;99.90
32839;DHT22;19182;41.820;12.808;2024-01-16T05:39:55;6.20;99.90
32839;DHT22;19182;41.820;12.808;2024-01-16T05:42:21;6.30;99.90
32839;DHT22;19182;41.820;12.808;2024-01-16T05:44:46;6.30;99.90
32839;DHT22;19182;41.820;12.808;2024-01-16T05:47:12;6.40;99.90
32839;DHT22;19182;41.820;12.808;2024-01-16T05:49:39;6.40;99.90
32839;DHT22;19182;41.820;12.808;2024-01-16T05:52:07;6.40;99.90
32839;DHT22;19182;41.820;12.808;2024-01-16T05:54:34;6.40;99.90
32839;DHT22;19182;41.820;12.808;2024-01-16T05:57:00;6.30;99.90
32839;DHT22;19182;41.820;12.808;2024-01-16T05:59:26;6.30;99.90
32839;DHT22;19182;41.820;12.808;2024-01-16T06:01:51;6.20;99.90
32839;DHT22;19182;41.820;12.808;2024-01-16T06:04:17;6.10;99.90
32839;DHT22;19182;41.820;12.808;2024-01-16T06:06:43;6.20;99.90
32839;DHT22;19182;41.820;12.808;2024-01-16T06:09:10;6.30;99.90
32839;DHT22;19182;41.820;12.808;2024-01-16T06:11:39;6.60;99.90
32839;DHT22;19182;41.820;12.808;2024-01-16T06:14:07;6.60;99.90
32839;DHT22;19182;41.820;12.808;2024-01-16T06:16:34;6.70;99.90
32839;DHT22;19182;41.820;12.808;2024-01-16T06:19:00;6.80;99.90
32839;DHT22;19182;41.820;12.808;2024-01-16T06:21:27;6.70;99.90
32839;DHT22;19182;41.820;12.808;2024-01-16T06:23:55;6.60;99.90
32839;DHT22;19182;41.820;12.808;2024-01-16T06:26:23;5.20;99.90
32839;DHT22;19182;41.820;12.808;2024-01-16T06:28:50;6.70;99.90
32839;DHT22;19182;41.820;12.808;2024-01-16T06:31:17;6.70;99.90
32839;DHT22;19182;41.820;12.808;2024-01-16T06:33:43;6.70;99.90
32839;DHT22;19182;41.820;12.808;2024-01-16T06:36:09;6.80;99.90
32839;DHT22;19182;41.820;12.808;2024-01-16T06:38:37;7.60;99.90
32839;DHT22;19182;41.820;12.808;2024-01-16T06:41:04;6.70;99.90
32839;DHT22;19182;41.820;12.808;2024-01-16T06:43:30;6.60;99.90
32839;DHT22;19182;41.820;12.808;2024-01-16T06:45:57;6.70;99.90
32839;DHT22;19182;41.820;12.808;2024-01-16T06:48:25;6.60;99.90
32839;DHT22;19182;41.820;12.808;2024-01-16T06:50:52;6.60;99.90
32839;DHT22;19182;41.820;12.808;2024-01-16T06:53:19;6.70;99.90
32839;DHT22;19182;41.820;12.808;2024-01-16T06:55:48;6.70;99.90
32839;DHT22;19182;41.820;12.808;2024-01-16T06:58:14;9.80;99.90
32839;DHT22;19182;41.820;12.808;2024-01-16T07:00:40;6.70;99.90
32839;DHT22;19182;41.820;12.808;2024-01-16T07:03:07;6.70;99.90
32839;DHT22;19182;41.820;12.808;2024-01-16T07:05:33;6.70;99.90
32839;DHT22;19182;41.820;12.808;2024-01-16T07:08:00;6.80;99.90
32839;DHT22;19182;41.820;12.808;2024-01-16T07:10:26;6.80;99.90
32839;DHT22;19182;41.820;12.808;2024-01-16T07:15:19;6.80;99.90
32839;DHT22;19182;41.820;12.808;2024-01-16T07:17:46;6.90;99.90
32839;DHT22;19182;41.820;12.808;2024-01-16T07:20:12;6.90;99.90
32839;DHT22;19182;41.820;12.808;2024-01-16T07:22:38;7.00;99.90
32839;DHT22;19182;41.820;12.808;2024-01-16T07:25:06;7.00;99.90
32839;DHT22;19182;41.820;12.808;2024-01-16T07:27:32;7.10;99.90
32839;DHT22;19182;41.820;12.808;2024-01-16T07:29:59;7.20;99.90
32839;DHT22;19182;41.820;12.808;2024-01-16T07:32:26;7.30;99.90
32839;DHT22;19182;41.820;12.808;2024-01-16T07:34:53;7.30;99.90
32839;DHT22;19182;41.820;12.808;2024-01-16T07:37:19;7.40;99.90
32839;DHT22;19182;41.820;12.808;2024-01-16T07:39:46;7.50;99.90
32839;DHT22;19182;41.820;12.808;2024-01-16T07:42:13;7.60;99.90
32839;DHT22;19182;41.820;12.808;2024-01-16T07:47:06;7.90;99.90
32839;DHT22;19182;41.820;12.808;2024-01-16T07:49:31;8.00;99.90
32839;DHT22;19182;41.820;12.808;2024-01-16T07:51:59;8.20;99.90
32839;DHT22;19182;41.820;12.808;2024-01-16T07:54:26;8.80;99.90
32839;DHT22;19182;41.820;12.808;2024-01-16T07:56:52;9.30;99.90
32839;DHT22;19182;41.820;12.808;2024-01-16T07:59:19;11.00;99.90
32839;DHT22;19182;41.820;12.808;2024-01-16T08:01:44;10.70;99.90
32839;DHT22;19182;41.820;12.808;2024-01-16T08:04:11;11.30;99.90
32839;DHT22;19182;41.820;12.808;2024-01-16T08:06:37;11.20;99.90
32839;DHT22;19182;41.820;12.808;2024-01-16T08:09:04;11.50;99.90
32839;DHT22;19182;41.820;12.808;2024-01-16T08:11:30;11.60;99.90
32839;DHT22;19182;41.820;12.808;2024-01-16T08:13:58;12.40;99.90
32839;DHT22;19182;41.820;12.808;2024-01-16T08:16:24;13.00;99.90
32839;DHT22;19182;41.820;12.808;2024-01-16T08:18:49;13.10;99.90
32839;DHT22;19182;41.820;12.808;2024-01-16T08:21:15;13.40;99.90
32839;DHT22;19182;41.820;12.808;2024-01-16T08:23:41;13.50;99.90
32839;DHT22;19182;41.820;12.808;2024-01-16T08:26:07;13.00;99.90
32839;DHT22;19182;41.820;12.808;2024-01-16T08:28:34;13.10;99.90
32839;DHT22;19182;41.820;12.808;2024-01-16T08:31:01;13.00;99.90
32839;DHT22;19182;41.820;12.808;2024-01-16T08:33:27;13.10;99.90
32839;DHT22;19182;41.820;12.808;2024-01-16T08:35:53;12.50;99.90
32839;DHT22;19182;41.820;12.808;2024-01-16T08:38:19;11.90;99.90
32839;DHT22;19182;41.820;12.808;2024-01-16T08:40:44;11.30;99.90
32839;DHT22;19182;41.820;12.808;2024-01-16T08:43:10;10.90;99.90
32839;DHT22;19182;41.820;12.808;2024-01-16T08:45:37;10.50;99.90
32839;DHT22;19182;41.820;12.808;2024-01-16T08:48:03;10.30;99.90
32839;DHT22;19182;41.820;12.808;2024-01-16T08:50:29;10.30;99.90
32839;DHT22;19182;41.820;12.808;2024-01-16T08:52:56;10.30;99.90
32839;DHT22;19182;41.820;12.808;2024-01-16T08:55:23;10.50;99.90
32839;DHT22;19182;41.820;12.808;2024-01-16T08:57:53;10.10;99.90
32839;DHT22;19182;41.820;12.808;2024-01-16T09:00:20;10.00;99.90
32839;DHT22;19182;41.820;12.808;2024-01-16T09:02:46;10.00;99.90
32839;DHT22;19182;41.820;12.808;2024-01-16T09:05:15;10.00;99.90
32839;DHT22;19182;41.820;12.808;2024-01-16T09:07:41;10.00;99.90
32839;DHT22;19182;41.820;12.808;2024-01-16T09:10:07;10.60;99.90
32839;DHT22;19182;41.820;12.808;2024-01-16T09:12:33;11.80;99.90
32839;DHT22;19182;41.820;12.808;2024-01-16T09:15:00;13.10;99.90
32839;DHT22;19182;41.820;12.808;2024-01-16T09:17:26;14.50;99.90
32839;DHT22;19182;41.820;12.808;2024-01-16T09:22:21;14.30;99.90
32839;DHT22;19182;41.820;12.808;2024-01-16T09:24:48;13.50;99.90
32839;DHT22;19182;41.820;12.808;2024-01-16T09:27:15;13.50;99.90
32839;DHT22;19182;41.820;12.808;2024-01-16T09:29:42;15.20;99.90
32839;DHT22;19182;41.820;12.808;2024-01-16T09:32:08;16.20;99.90
32839;DHT22;19182;41.820;12.808;2024-01-16T09:34:35;16.10;99.90
32839;DHT22;19182;41.820;12.808;2024-01-16T09:37:00;16.30;99.90
32839;DHT22;19182;41.820;12.808;2024-01-16T09:39:28;16.80;99.90
32839;DHT22;19182;41.820;12.808;2024-01-16T09:41:59;16.10;99.90
32839;DHT22;19182;41.820;12.808;2024-01-16T09:44:29;16.10;99.90
32839;DHT22;19182;41.820;12.808;2024-01-16T09:46:55;15.50;99.90
32839;DHT22;19182;41.820;12.808;2024-01-16T09:49:23;15.80;99.90
32839;DHT22;19182;41.820;12.808;2024-01-16T09:51:49;16.80;99.90
32839;DHT22;19182;41.820;12.808;2024-01-16T09:54:16;17.80;99.90
32839;DHT22;19182;41.820;12.808;2024-01-16T09:56:43;18.60;99.90
32839;DHT22;19182;41.820;12.808;2024-01-16T09:59:15;18.50;99.90
32839;DHT22;19182;41.820;12.808;2024-01-16T10:01:43;18.40;99.90
32839;DHT22;19182;41.820;12.808;2024-01-16T10:06:38;17.90;99.90
32839;DHT22;19182;41.820;12.808;2024-01-16T10:09:13;18.00;99.90
32839;DHT22;19182;41.820;12.808;2024-01-16T10:11:40;18.20;99.90
32839;DHT22;19182;41.820;12.808;2024-01-16T10:14:08;18.40;99.90
32839;DHT22;19182;41.820;12.808;2024-01-16T10:16:56;17.90;99.90
32839;DHT22;19182;41.820;12.808;2024-01-16T10:19:23;17.90;99.90
32839;DHT22;19182;41.820;12.808;2024-01-16T10:21:50;18.40;99.90
32839;DHT22;19182;41.820;12.808;2024-01-16T10:24:17;18.70;99.90
32839;DHT22;19182;41.820;12.808;2024-01-16T10:26:43;18.30;99.90
32839;DHT22;19182;41.820;12.808;2024-01-16T10:29:09;18.00;99.90
32839;DHT22;19182;41.820;12.808;2024-01-16T10:31:36;18.30;99.90
32839;DHT22;19182;41.820;12.808;2024-01-16T10:34:19;18.20;99.90
32839;DHT22;19182;41.820;12.808;2024-01-16T10:36:51;17.70;99.90
32839;DHT22;19182;41.820;12.808;2024-01-16T10:39:19;18.30;99.90
32839;DHT22;19182;41.820;12.808;2024-01-16T10:41:57;20.90;99.90
32839;DHT22;19182;41.820;12.808;2024-01-16T10:44:24;20.60;99.90
32839;DHT22;19182;41.820;12.808;2024-01-16T10:46:50;21.10;99.90
32839;DHT22;19182;41.820;12.808;2024-01-16T10:49:20;21.40;99.90
32839;DHT22;19182;41.820;12.808;2024-01-16T10:51:51;22.00;99.90
32839;DHT22;19182;41.820;12.808;2024-01-16T10:54:17;22.60;99.90
32839;DHT22;19182;41.820;12.808;2024-01-16T10:56:46;24.30;99.90
32839;DHT22;19182;41.820;12.808;2024-01-16T10:59:19;24.20;99.90
32839;DHT22;19182;41.820;12.808;2024-01-16T11:01:56;25.80;99.90
32839;DHT22;19182;41.820;12.808;2024-01-16T11:04:24;25.90;99.90
32839;DHT22;19182;41.820;12.808;2024-01-16T11:06:54;25.40;99.60
32839;DHT22;19182;41.820;12.808;2024-01-16T11:09:22;25.50;99.90
32839;DHT22;19182;41.820;12.808;2024-01-16T11:11:50;24.70;99.90
32839;DHT22;19182;41.820;12.808;2024-01-16T11:14:24;24.40;99.90
32839;DHT22;19182;41.820;12.808;2024-01-16T11:16:51;25.20;99.90
32839;DHT22;19182;41.820;12.808;2024-01-16T11:19:20;25.20;99.90
32839;DHT22;19182;41.820;12.808;2024-01-16T11:21:46;21.70;98.50
32839;DHT22;19182;41.820;12.808;2024-01-16T11:24:12;25.00;99.90
32839;DHT22;19182;41.820;12.808;2024-01-16T11:26:41;26.20;99.70
32839;DHT22;19182;41.820;12.808;2024-01-16T11:29:34;27.40;97.30
32839;DHT22;19182;41.820;12.808;2024-01-16T11:32:04;26.10;95.70
32839;DHT22;19182;41.820;12.808;2024-01-16T11:37:26;25.40;98.20
32839;DHT22;19182;41.820;12.808;2024-01-16T11:42:49;25.10;99.00
32839;DHT22;19182;41.820;12.808;2024-01-16T11:45:47;24.50;99.90
32839;DHT22;19182;41.820;12.808;2024-01-16T11:48:15;26.80;95.50
32839;DHT22;19182;41.820;12.808;2024-01-16T11:50:41;26.80;95.40
32839;DHT22;19182;41.820;12.808;2024-01-16T11:53:10;25.80;97.00
32839;DHT22;19182;41.820;12.808;2024-01-16T11:56:14;27.20;94.50
32839;DHT22;19182;41.820;12.808;2024-01-16T12:01:18;26.00;94.40
32839;DHT22;19182;41.820;12.808;2024-01-16T12:03:45;24.70;96.80
32839;DHT22;19182;41.820;12.808;2024-01-16T12:06:15;25.20;96.70
32839;DHT22;19182;41.820;12.808;2024-01-16T12:08:41;25.20;96.30
32839;DHT22;19182;41.820;12.808;2024-01-16T12:11:09;24.70;96.70
32839;DHT22;19182;41.820;12.808;2024-01-16T12:13:36;25.00;97.80
32839;DHT22;19182;41.820;12.808;2024-01-16T12:16:03;25.00;95.90
32839;DHT22;19182;41.820;12.808;2024-01-16T12:18:30;24.90;96.50
32839;DHT22;19182;41.820;12.808;2024-01-16T12:20:56;24.00;98.60
32839;DHT22;19182;41.820;12.808;2024-01-16T12:25:53;23.90;97.80
32839;DHT22;19182;41.820;12.808;2024-01-16T12:30:51;23.60;99.20
32839;DHT22;19182;41.820;12.808;2024-01-16T12:33:24;25.20;98.10
32839;DHT22;19182;41.820;12.808;2024-01-16T12:35:49;26.90;95.90
32839;DHT22;19182;41.820;12.808;2024-01-16T12:38:17;26.90;95.60
32839;DHT22;19182;41.820;12.808;2024-01-16T12:40:49;28.00;96.10
32839;DHT22;19182;41.820;12.808;2024-01-16T12:43:22;25.10;95.10
32839;DHT22;19182;41.820;12.808;2024-01-16T12:45:55;26.40;95.90
32839;DHT22;19182;41.820;12.808;2024-01-16T12:53:40;26.60;94.50
32839;DHT22;19182;41.820;12.808;2024-01-16T12:56:06;25.30;96.30
32839;DHT22;19182;41.820;12.808;2024-01-16T12:58:37;25.10;95.90
32839;DHT22;19182;41.820;12.808;2024-01-16T13:01:26;25.50;96.10
32839;DHT22;19182;41.820;12.808;2024-01-16T13:06:38;25.90;95.30
32839;DHT22;19182;41.820;12.808;2024-01-16T13:09:11;25.70;96.30
32839;DHT22;19182;41.820;12.808;2024-01-16T13:11:55;25.40;96.20
32839;DHT22;19182;41.820;12.808;2024-01-16T13:14:24;26.00;96.10
32839;DHT22;19182;41.820;12.808;2024-01-16T13:16:53;26.90;94.80
32839;DHT22;19182;41.820;12.808;2024-01-16T13:21:54;26.20;95.70
32839;DHT22;19182;41.820;12.808;2024-01-16T13:24:20;27.70;94.20
32839;DHT22;19182;41.820;12.808;2024-01-16T13:26:50;26.80;93.40
32839;DHT22;19182;41.820;12.808;2024-01-16T13:29:16;26.80;94.90
32839;DHT22;19182;41.820;12.808;2024-01-16T13:31:43;26.60;95.20
32839;DHT22;19182;41.820;12.808;2024-01-16T13:34:09;25.40;95.20
32839;DHT22;19182;41.820;12.808;2024-01-16T13:36:36;24.90;96.30
32839;DHT22;19182;41.820;12.808;2024-01-16T13:39:04;24.00;97.50
32839;DHT22;19182;41.820;12.808;2024-01-16T13:44:13;20.60;99.90
32839;DHT22;19182;41.820;12.808;2024-01-16T13:52:17;17.70;99.90
32839;DHT22;19182;41.820;12.808;2024-01-16T13:54:45;16.70;99.90
32839;DHT22;19182;41.820;12.808;2024-01-16T13:59:40;16.50;99.90
32839;DHT22;19182;41.820;12.808;2024-01-16T14:02:08;16.30;99.90
32839;DHT22;19182;41.820;12.808;2024-01-16T14:04:34;15.80;99.90
32839;DHT22;19182;41.820;12.808;2024-01-16T14:26:49;14.20;99.90
32839;DHT22;19182;41.820;12.808;2024-01-16T14:36:43;14.10;99.90
32839;DHT22;19182;41.820;12.808;2024-01-16T14:41:39;13.90;99.90
32839;DHT22;19182;41.820;12.808;2024-01-16T14:51:32;14.10;99.90
32839;DHT22;19182;41.820;12.808;2024-01-16T15:13:39;13.40;99.90
32839;DHT22;19182;41.820;12.808;2024-01-16T15:21:02;13.30;99.90
32839;DHT22;19182;41.820;12.808;2024-01-16T15:30:53;12.90;99.90
32839;DHT22;19182;41.820;12.808;2024-01-16T15:43:16;12.70;99.90
32839;DHT22;19182;41.820;12.808;2024-01-16T15:50:36;12.50;99.90
32839;DHT22;19182;41.820;12.808;2024-01-16T15:53:08;12.40;99.90
32839;DHT22;19182;41.820;12.808;2024-01-16T15:55:34;12.40;99.90
32839;DHT22;19182;41.820;12.808;2024-01-16T16:00:27;12.40;99.90
32839;DHT22;19182;41.820;12.808;2024-01-16T16:02:52;12.40;99.90
32839;DHT22;19182;41.820;12.808;2024-01-16T16:05:19;12.20;99.90
32839;DHT22;19182;41.820;12.808;2024-01-16T16:07:46;12.10;99.90
32839;DHT22;19182;41.820;12.808;2024-01-16T16:10:21;12.10;99.90
32839;DHT22;19182;41.820;12.808;2024-01-16T16:15:16;12.00;99.90
32839;DHT22;19182;41.820;12.808;2024-01-16T16:17:42;12.10;99.90
32839;DHT22;19182;41.820;12.808;2024-01-16T16:20:08;12.00;99.90
32839;DHT22;19182;41.820;12.808;2024-01-16T16:22:35;12.10;99.90
32839;DHT22;19182;41.820;12.808;2024-01-16T16:25:02;14.50;99.90
32839;DHT22;19182;41.820;12.808;2024-01-16T16:32:23;12.00;99.90
32839;DHT22;19182;41.820;12.808;2024-01-16T16:37:17;12.10;99.90
32839;DHT22;19182;41.820;12.808;2024-01-16T16:39:43;12.00;99.90
32839;DHT22;19182;41.820;12.808;2024-01-16T16:42:11;11.90;99.90
32839;DHT22;19182;41.820;12.808;2024-01-16T16:47:04;11.90;99.90
32839;DHT22;19182;41.820;12.808;2024-01-16T17:01:48;11.50;99.90
32839;DHT22;19182;41.820;12.808;2024-01-16T17:04:14;11.60;99.90
32839;DHT22;19182;41.820;12.808;2024-01-16T17:06:39;11.50;99.90
32839;DHT22;19182;41.820;12.808;2024-01-16T17:11:32;11.50;99.90
32839;DHT22;19182;41.820;12.808;2024-01-16T17:16:25;11.40;99.90
32839;DHT22;19182;41.820;12.808;2024-01-16T17:18:53;11.40;99.90
32839;DHT22;19182;41.820;12.808;2024-01-16T17:21:19;11.30;99.90
32839;DHT22;19182;41.820;12.808;2024-01-16T17:23:47;11.30;99.90
32839;DHT22;19182;41.820;12.808;2024-01-16T17:28:40;11.30;99.90
32839;DHT22;19182;41.820;12.808;2024-01-16T17:40:56;11.10;99.90
32839;DHT22;19182;41.820;12.808;2024-01-16T17:50:56;11.10;99.90
32839;DHT22;19182;41.820;12.808;2024-01-16T18:00:49;10.80;99.90
32839;DHT22;19182;41.820;12.808;2024-01-16T18:03:15;10.80;99.90
32839;DHT22;19182;41.820;12.808;2024-01-16T18:05:42;10.70;99.90
32839;DHT22;19182;41.820;12.808;2024-01-16T18:22:58;10.50;99.90
32839;DHT22;19182;41.820;12.808;2024-01-16T18:27:55;10.40;99.90
32839;DHT22;19182;41.820;12.808;2024-01-16T18:30:24;10.30;99.90
32839;DHT22;19182;41.820;12.808;2024-01-16T18:32:55;10.40;99.90
32839;DHT22;19182;41.820;12.808;2024-01-16T18:40:20;10.50;99.90
32839;DHT22;19182;41.820;12.808;2024-01-16T18:52:44;10.50;99.90
32839;DHT22;19182;41.820;12.808;2024-01-16T18:55:11;10.30;99.90
32839;DHT22;19182;41.820;12.808;2024-01-16T19:00:10;10.20;99.90
32839;DHT22;19182;41.820;12.808;2024-01-16T19:02:43;10.00;99.90
32839;DHT22;19182;41.820;12.808;2024-01-16T19:10:10;10.10;99.90
32839;DHT22;19182;41.820;12.808;2024-01-16T19:17:49;10.20;99.90
32839;DHT22;19182;41.820;12.808;2024-01-16T19:20:18;10.20;99.90
32839;DHT22;19182;41.820;12.808;2024-01-16T19:22:48;10.10;99.90
32839;DHT22;19182;41.820;12.808;2024-01-16T19:27:51;10.20;99.90